Crystal Springs, Nevada
Current Conditions -  °F | °C
As of 12:58 AM on Saturday 25 Oct 2014 (Local Time) from KINS Reporting Station
Clear Clear  
Wind Chill: 58°   Ceiling: Unl
Heat Index: 58°   Visibility: 10mi
Dew Point: 33°   Wind: 2mph
Humidity: 39%   Direction: NA
Pressure: 30.07"   Gusts: NA
Location:  37.7776°N, 115.121°W
Report Text: KINS 250758Z AUTO VRB02KT 10SM CLR 14/01 A3007 RMK AO2 SLP145 T01440006 402850085 $
Loading
Personal Weather Stations






























Interactive Weather Map
Tropical Storm Tracking
New forecast layout! Learn more

10-Day Weather Forecast

Advertisements
Track Severe Weather on mobile